Time;durP1;ratioP1;P1;durP2;ratioP2;P2;SDS_P1;SDS_P2;PMS_P1;PMS_P2;Temp;Humidity;BMP_temperature;BMP_pressure;BME280_temperature;BME280_humidity;BME280_pressure;Samples;Min_cycle;Max_cycle;Signal;HPM_P1;HPM_P2
2022/11/30 00:01:37;;;;;;;27.80;19.70;;;6.30;99.90;;;;;;6249835;28;20498;-62
2022/11/30 00:04:40;;;;;;;26.23;19.37;;;6.30;99.90;;;;;;6250082;28;20447;-63
2022/11/30 00:07:44;;;;;;;30.63;19.33;;;6.30;99.90;;;;;;6249471;28;20446;-63
2022/11/30 00:10:47;;;;;;;24.63;18.23;;;6.30;99.90;;;;;;6249154;28;20871;-62
2022/11/30 00:13:52;;;;;;;28.20;19.13;;;6.30;99.90;;;;;;6255031;28;20444;-63
2022/11/30 00:16:55;;;;;;;25.13;19.60;;;6.30;99.90;;;;;;6251893;28;20475;-64
2022/11/30 00:19:58;;;;;;;29.60;19.60;;;6.30;99.90;;;;;;6249623;28;20844;-64
2022/11/30 00:23:01;;;;;;;31.27;20.67;;;6.30;99.90;;;;;;6259098;28;20796;-64
2022/11/30 00:26:06;;;;;;;29.07;23.00;;;6.30;99.90;;;;;;6274095;28;20466;-64
2022/11/30 00:29:11;;;;;;;24.93;19.13;;;6.30;99.90;;;;;;6274580;28;20565;-64
2022/11/30 00:32:14;;;;;;;29.40;19.30;;;6.30;99.90;;;;;;6274867;28;20470;-63
2022/11/30 00:35:18;;;;;;;28.43;21.93;;;6.30;99.90;;;;;;6266754;28;20492;-64
2022/11/30 00:38:21;;;;;;;30.27;21.50;;;6.30;99.90;;;;;;6276459;28;20961;-63
2022/11/30 00:41:24;;;;;;;31.90;20.33;;;6.30;99.90;;;;;;6279010;28;20474;-64
2022/11/30 00:44:29;;;;;;;27.83;20.60;;;6.30;99.90;;;;;;6278595;28;20478;-62
2022/11/30 00:47:32;;;;;;;30.30;20.90;;;6.30;99.90;;;;;;6278841;28;20532;-61
2022/11/30 00:50:35;;;;;;;28.60;20.50;;;6.30;99.90;;;;;;6278482;28;20470;-63
2022/11/30 00:53:39;;;;;;;26.07;20.00;;;6.30;99.90;;;;;;6247389;28;20470;-63
2022/11/30 00:56:42;;;;;;;31.60;20.60;;;6.30;99.90;;;;;;6253424;28;20970;-63
2022/11/30 00:59:46;;;;;;;27.67;20.03;;;6.30;99.90;;;;;;6253105;28;20966;-63
2022/11/30 01:02:53;;;;;;;29.23;19.73;;;6.30;99.90;;;;;;6253726;28;20485;-62
2022/11/30 01:06:01;;;;;;;29.50;21.90;;;6.40;99.90;;;;;;6253284;28;20476;-62
2022/11/30 01:09:05;;;;;;;30.00;21.07;;;6.30;99.90;;;;;;6253304;28;21029;-63
2022/11/30 01:12:08;;;;;;;30.50;20.90;;;6.30;99.90;;;;;;6253387;28;20477;-63
2022/11/30 01:15:13;;;;;;;33.63;22.70;;;6.30;99.90;;;;;;6253059;28;20486;-64
2022/11/30 01:18:16;;;;;;;27.97;21.70;;;6.30;99.90;;;;;;6252945;28;20540;-63
2022/11/30 01:21:21;;;;;;;28.77;20.50;;;6.30;99.90;;;;;;6253537;28;20494;-64
2022/11/30 01:24:25;;;;;;;28.13;20.77;;;6.30;99.90;;;;;;6274206;28;20534;-62
2022/11/30 01:27:28;;;;;;;37.70;21.90;;;6.30;99.90;;;;;;6277799;28;20466;-63
2022/11/30 01:30:32;;;;;;;28.50;20.87;;;6.30;99.90;;;;;;6264162;28;20809;-64
2022/11/30 01:33:36;;;;;;;28.80;19.73;;;6.30;99.90;;;;;;6263152;28;20563;-64
2022/11/30 01:36:39;;;;;;;31.63;19.07;;;6.30;99.90;;;;;;6264943;28;20474;-64
2022/11/30 01:39:42;;;;;;;27.40;20.00;;;6.30;99.90;;;;;;6258720;28;20525;-64
2022/11/30 01:42:46;;;;;;;28.90;20.37;;;6.30;99.90;;;;;;6246313;28;20980;-64
2022/11/30 01:45:51;;;;;;;26.07;18.77;;;6.30;99.90;;;;;;6264521;28;21003;-64
2022/11/30 01:49:00;;;;;;;28.57;20.77;;;6.30;99.90;;;;;;6263188;28;20489;-64
2022/11/30 01:52:08;;;;;;;24.43;18.57;;;6.20;99.90;;;;;;6263176;28;20809;-64
2022/11/30 01:55:17;;;;;;;23.43;17.30;;;6.20;99.90;;;;;;6260675;28;20487;-64
2022/11/30 01:58:26;;;;;;;24.63;19.03;;;6.30;99.90;;;;;;6265814;28;20750;-64
2022/11/30 02:01:31;;;;;;;26.30;18.60;;;6.30;99.90;;;;;;6260642;28;20479;-64
2022/11/30 02:04:37;;;;;;;24.87;18.70;;;6.30;99.90;;;;;;6264663;28;21024;-64
2022/11/30 02:07:41;;;;;;;24.13;17.80;;;6.30;99.90;;;;;;6263141;28;20516;-64
2022/11/30 02:10:49;;;;;;;29.33;19.00;;;6.30;99.90;;;;;;6265384;28;20573;-64
2022/11/30 02:14:04;;;;;;;25.93;18.37;;;6.30;99.90;;;;;;6260591;28;20728;-64
2022/11/30 02:17:17;;;;;;;25.30;20.20;;;6.30;99.90;;;;;;6252639;28;20478;-64
2022/11/30 02:20:40;;;;;;;24.30;18.10;;;6.30;99.90;;;;;;6254263;28;20475;-64
2022/11/30 02:24:08;;;;;;;25.93;19.23;;;6.30;99.90;;;;;;6263700;28;20468;-64
2022/11/30 02:27:20;;;;;;;25.40;17.90;;;6.30;99.90;;;;;;6269683;28;20479;-64
2022/11/30 02:30:25;;;;;;;29.87;20.20;;;6.20;99.90;;;;;;6252432;28;20773;-64
2022/11/30 02:33:31;;;;;;;25.07;18.90;;;6.10;99.90;;;;;;6252597;28;20483;-64
2022/11/30 02:36:35;;;;;;;23.87;17.33;;;6.00;99.90;;;;;;6252730;28;20553;-64
2022/11/30 02:39:38;;;;;;;25.83;18.30;;;6.00;99.90;;;;;;6252500;28;20491;-64
2022/11/30 02:42:42;;;;;;;24.90;17.90;;;5.90;99.90;;;;;;6251201;28;20490;-64
2022/11/30 02:45:53;;;;;;;26.70;18.87;;;6.00;99.90;;;;;;6241913;28;20956;-64
2022/11/30 02:49:02;;;;;;;29.13;20.57;;;6.00;99.90;;;;;;6251299;28;20475;-63
2022/11/30 02:52:07;;;;;;;34.10;22.37;;;6.00;99.90;;;;;;6250907;28;20487;-64
2022/11/30 02:55:14;;;;;;;38.33;23.60;;;5.90;99.90;;;;;;6250893;28;20474;-64
2022/11/30 02:58:18;;;;;;;35.50;24.40;;;5.90;99.90;;;;;;6250641;28;20475;-64
2022/11/30 03:01:23;;;;;;;33.27;22.40;;;5.80;99.90;;;;;;6250269;28;20978;-64
2022/11/30 03:04:26;;;;;;;34.67;23.57;;;5.80;99.90;;;;;;6251091;28;20490;-64
2022/11/30 03:07:29;;;;;;;32.47;22.50;;;5.80;99.90;;;;;;6250901;28;20470;-64
2022/11/30 03:10:32;;;;;;;30.63;21.00;;;5.90;99.90;;;;;;6250503;28;20490;-64
2022/11/30 03:13:35;;;;;;;34.70;22.47;;;5.90;99.90;;;;;;6250334;28;20540;-64
2022/11/30 03:16:40;;;;;;;29.53;22.00;;;6.00;99.90;;;;;;6250201;28;20479;-64
2022/11/30 03:19:43;;;;;;;30.00;20.67;;;6.00;99.90;;;;;;6250734;28;20528;-64
2022/11/30 03:22:46;;;;;;;28.40;20.63;;;6.00;99.90;;;;;;6257580;28;20906;-64
2022/11/30 03:25:49;;;;;;;24.53;19.33;;;6.00;99.90;;;;;;6275498;28;20446;-64
2022/11/30 03:28:52;;;;;;;27.03;19.83;;;6.10;99.90;;;;;;6275304;28;20470;-65
2022/11/30 03:31:57;;;;;;;28.43;18.80;;;6.10;99.90;;;;;;6275509;28;20516;-64
2022/11/30 03:35:00;;;;;;;29.60;19.43;;;6.00;99.90;;;;;;6275621;28;20473;-64
2022/11/30 03:38:03;;;;;;;25.47;17.90;;;6.00;99.90;;;;;;6275661;28;20532;-64
2022/11/30 03:41:09;;;;;;;30.63;19.40;;;6.00;99.90;;;;;;6275293;28;20489;-64
2022/11/30 03:44:12;;;;;;;25.30;18.50;;;6.00;99.90;;;;;;6275142;28;20977;-64
2022/11/30 03:47:17;;;;;;;28.23;19.80;;;6.00;99.90;;;;;;6271375;28;20462;-64
2022/11/30 03:50:20;;;;;;;27.93;20.17;;;6.00;99.90;;;;;;6275089;28;20961;-64
2022/11/30 03:53:24;;;;;;;29.30;19.97;;;6.10;99.90;;;;;;6266292;28;20529;-64
2022/11/30 03:56:28;;;;;;;33.93;20.90;;;6.10;99.90;;;;;;6250425;28;20476;-64
2022/11/30 03:59:31;;;;;;;29.40;20.20;;;6.00;99.90;;;;;;6250460;28;20486;-64
2022/11/30 04:02:36;;;;;;;28.40;20.83;;;6.10;99.90;;;;;;6250502;28;20482;-64
2022/11/30 04:05:47;;;;;;;32.53;20.47;;;6.10;99.90;;;;;;6249978;28;20939;-64
2022/11/30 04:08:50;;;;;;;30.57;19.93;;;6.00;99.90;;;;;;6251497;28;20475;-64
2022/11/30 04:11:53;;;;;;;32.03;20.80;;;6.00;99.90;;;;;;6250787;28;20528;-64
2022/11/30 04:14:56;;;;;;;27.07;19.30;;;6.00;99.90;;;;;;6254974;28;20471;-64
2022/11/30 04:18:01;;;;;;;27.60;20.77;;;6.00;99.90;;;;;;6255349;28;20471;-64
2022/11/30 04:21:06;;;;;;;31.37;22.50;;;6.00;99.90;;;;;;6254917;28;20471;-64
2022/11/30 04:24:09;;;;;;;32.73;20.83;;;6.00;99.90;;;;;;6273333;28;20474;-64
2022/11/30 04:27:12;;;;;;;29.30;19.23;;;6.10;99.90;;;;;;6279567;28;20466;-64
2022/11/30 04:30:16;;;;;;;31.30;19.80;;;6.10;99.90;;;;;;6279905;28;20485;-65
2022/11/30 04:33:21;;;;;;;28.90;19.70;;;6.00;99.90;;;;;;6279726;28;20539;-65
2022/11/30 04:36:24;;;;;;;21.63;15.77;;;6.00;99.90;;;;;;6280037;28;20482;-65
2022/11/30 04:39:27;;;;;;;25.53;16.57;;;5.90;99.90;;;;;;6278847;28;20840;-65
2022/11/30 04:42:30;;;;;;;22.70;16.60;;;5.90;99.90;;;;;;6280322;28;20480;-64
2022/11/30 04:45:33;;;;;;;22.23;16.27;;;6.00;99.90;;;;;;6280500;28;20481;-64
2022/11/30 04:48:39;;;;;;;22.17;17.20;;;6.00;99.90;;;;;;6273644;28;20717;-64
2022/11/30 04:51:42;;;;;;;30.73;20.97;;;6.00;99.90;;;;;;6254358;28;20474;-64
2022/11/30 04:54:45;;;;;;;26.07;19.63;;;6.00;99.90;;;;;;6254435;28;20479;-64
2022/11/30 04:57:49;;;;;;;26.97;17.27;;;5.90;99.90;;;;;;6254186;28;20479;-65
2022/11/30 05:00:54;;;;;;;24.43;17.43;;;5.90;99.90;;;;;;6254181;28;20533;-65
2022/11/30 05:03:59;;;;;;;25.77;17.80;;;5.90;99.90;;;;;;6254100;28;20533;-66
2022/11/30 05:07:02;;;;;;;23.23;17.00;;;5.90;99.90;;;;;;6254082;28;20479;-65
2022/11/30 05:10:07;;;;;;;25.43;18.60;;;5.80;99.90;;;;;;6253681;28;20479;-64
2022/11/30 05:13:10;;;;;;;24.50;17.87;;;5.70;99.90;;;;;;6253723;28;20490;-65
2022/11/30 05:16:14;;;;;;;21.97;17.17;;;5.70;99.90;;;;;;6253830;28;20485;-64
2022/11/30 05:19:18;;;;;;;24.97;17.60;;;5.60;99.90;;;;;;6253851;28;21022;-64
2022/11/30 05:22:21;;;;;;;28.63;17.70;;;5.60;99.90;;;;;;6257243;28;20978;-64
2022/11/30 05:25:24;;;;;;;21.30;17.27;;;5.50;99.90;;;;;;6277780;28;20474;-64
2022/11/30 05:28:28;;;;;;;21.40;16.83;;;5.50;99.90;;;;;;6278539;28;20473;-64
2022/11/30 05:31:31;;;;;;;23.33;18.00;;;5.50;99.90;;;;;;6277994;28;20490;-64
2022/11/30 05:34:36;;;;;;;22.10;16.60;;;5.50;99.90;;;;;;6278276;28;20612;-64
2022/11/30 05:37:52;;;;;;;21.57;15.07;;;5.50;99.90;;;;;;6277727;28;20493;-64
2022/11/30 05:41:00;;;;;;;22.43;16.77;;;5.60;99.90;;;;;;6278018;28;20489;-64
2022/11/30 05:44:05;;;;;;;18.93;14.00;;;5.60;99.90;;;;;;6278053;28;20821;-65
2022/11/30 05:47:08;;;;;;;25.50;16.30;;;5.70;99.90;;;;;;6291429;28;20461;-65
2022/11/30 05:50:13;;;;;;;21.03;14.40;;;5.60;99.90;;;;;;6305292;28;20482;-63
2022/11/30 05:53:16;;;;;;;22.93;16.03;;;5.70;99.90;;;;;;6306318;28;20466;-62
2022/11/30 05:56:20;;;;;;;23.80;16.60;;;5.70;99.90;;;;;;6268526;28;20489;-64
2022/11/30 05:59:24;;;;;;;19.80;16.17;;;5.70;99.90;;;;;;6263249;28;20472;-66
2022/11/30 06:02:27;;;;;;;20.40;14.30;;;5.80;99.90;;;;;;6257297;28;20478;-66
2022/11/30 06:05:35;;;;;;;20.63;15.10;;;5.80;99.90;;;;;;6257256;28;20467;-67
2022/11/30 06:08:38;;;;;;;20.20;13.70;;;5.80;99.90;;;;;;6253181;28;20489;-65
2022/11/30 06:11:41;;;;;;;19.53;14.90;;;5.90;99.90;;;;;;6252604;28;20467;-66
2022/11/30 06:14:44;;;;;;;21.33;15.30;;;6.00;99.90;;;;;;6252336;28;20471;-65
2022/11/30 06:17:48;;;;;;;16.67;12.03;;;6.00;99.90;;;;;;6252182;28;20475;-66
2022/11/30 06:20:52;;;;;;;18.60;13.70;;;6.00;99.90;;;;;;6254463;28;20476;-65
2022/11/30 06:23:56;;;;;;;17.87;13.40;;;6.00;99.90;;;;;;6268895;28;20503;-65
2022/11/30 06:26:59;;;;;;;15.97;12.90;;;6.10;99.90;;;;;;6277039;28;20485;-65
2022/11/30 06:30:03;;;;;;;15.50;12.43;;;6.10;99.90;;;;;;6276245;28;20485;-65
2022/11/30 06:33:06;;;;;;;18.73;14.27;;;6.10;99.90;;;;;;6276855;28;20484;-65
2022/11/30 06:36:11;;;;;;;17.77;13.20;;;6.10;99.90;;;;;;6276745;28;20547;-65
2022/11/30 06:39:14;;;;;;;16.97;12.23;;;6.10;99.90;;;;;;6276231;28;20475;-65
2022/11/30 06:42:18;;;;;;;15.77;12.80;;;6.10;99.90;;;;;;6276795;28;20974;-65
2022/11/30 06:45:21;;;;;;;18.57;13.07;;;6.10;99.90;;;;;;6276705;28;20471;-65
2022/11/30 06:48:24;;;;;;;17.47;12.60;;;6.10;99.90;;;;;;6278872;28;20462;-66
2022/11/30 06:51:29;;;;;;;18.40;13.40;;;6.20;99.90;;;;;;6283640;28;20544;-65
2022/11/30 06:54:32;;;;;;;17.33;12.83;;;6.20;99.90;;;;;;6269167;28;20479;-64
2022/11/30 06:57:35;;;;;;;17.13;12.97;;;6.10;99.90;;;;;;6251674;28;20483;-64
2022/11/30 07:00:38;;;;;;;17.83;14.23;;;6.10;99.90;;;;;;6247112;28;20487;-65
2022/11/30 07:03:42;;;;;;;16.00;12.37;;;6.10;99.90;;;;;;6251631;28;20489;-64
2022/11/30 07:06:47;;;;;;;15.00;12.67;;;6.10;99.90;;;;;;6251302;28;20470;-65
2022/11/30 07:09:50;;;;;;;17.67;13.77;;;6.10;99.90;;;;;;6250905;28;20951;-64
2022/11/30 07:12:54;;;;;;;16.60;13.10;;;6.20;99.90;;;;;;6251663;28;20493;-65
2022/11/30 07:15:57;;;;;;;22.20;13.80;;;6.20;99.90;;;;;;6251056;28;20471;-65
2022/11/30 07:19:00;;;;;;;20.73;13.87;;;6.20;99.90;;;;;;6250945;28;20487;-65
2022/11/30 07:22:05;;;;;;;20.30;13.53;;;6.20;99.90;;;;;;6259833;28;20467;-64
2022/11/30 07:28:31;;;;;;;18.20;13.40;;;6.30;99.90;;;;;;6260428;28;20482;-64
2022/11/30 07:31:34;;;;;;;18.60;13.60;;;6.30;99.90;;;;;;6261687;28;20485;-65
2022/11/30 07:34:37;;;;;;;16.77;12.87;;;6.30;99.90;;;;;;6272116;28;20791;-65
2022/11/30 07:37:42;;;;;;;13.80;11.97;;;6.30;99.90;;;;;;6275580;28;20838;-65
2022/11/30 07:40:45;;;;;;;18.13;13.27;;;6.30;99.90;;;;;;6275447;28;20487;-64
2022/11/30 07:43:48;;;;;;;17.23;14.40;;;6.30;99.90;;;;;;6265469;28;20449;-64
2022/11/30 07:46:52;;;;;;;19.80;15.17;;;6.30;99.90;;;;;;6257848;28;20474;-64
2022/11/30 07:49:55;;;;;;;18.40;13.03;;;6.30;99.90;;;;;;6257119;28;20462;-65
2022/11/30 07:52:59;;;;;;;18.60;14.40;;;6.30;99.90;;;;;;6261558;28;20446;-64
2022/11/30 07:56:04;;;;;;;17.50;14.80;;;6.30;99.90;;;;;;6256066;28;20514;-64
2022/11/30 07:59:07;;;;;;;20.50;15.20;;;6.30;99.90;;;;;;6262819;28;20529;-65
2022/11/30 08:02:11;;;;;;;19.70;15.13;;;6.30;99.90;;;;;;6267685;28;20485;-64
2022/11/30 08:05:15;;;;;;;19.60;14.70;;;6.20;99.90;;;;;;6261423;28;20484;-64
2022/11/30 08:08:20;;;;;;;21.07;15.30;;;6.20;99.90;;;;;;6274776;28;20477;-64
2022/11/30 08:11:24;;;;;;;18.53;15.03;;;6.20;99.90;;;;;;6274615;28;20475;-64
2022/11/30 08:14:28;;;;;;;17.70;14.10;;;6.30;99.90;;;;;;6274636;28;20470;-65
2022/11/30 08:17:31;;;;;;;19.20;15.20;;;6.30;99.90;;;;;;6274622;28;20532;-65
2022/11/30 08:20:34;;;;;;;18.40;15.47;;;6.30;99.90;;;;;;6274311;28;20481;-64
2022/11/30 08:23:40;;;;;;;23.97;16.80;;;6.30;99.90;;;;;;6273831;28;20799;-64
2022/11/30 08:26:44;;;;;;;20.37;14.87;;;6.30;99.90;;;;;;6274294;28;20478;-64
2022/11/30 08:29:47;;;;;;;19.73;14.43;;;6.40;99.90;;;;;;6274386;28;20586;-64
2022/11/30 08:32:50;;;;;;;21.73;13.20;;;6.40;99.90;;;;;;6273722;28;20830;-64
2022/11/30 08:35:54;;;;;;;16.63;13.70;;;6.40;99.90;;;;;;6249570;28;20479;-64
2022/11/30 08:39:01;;;;;;;16.13;14.30;;;6.40;99.90;;;;;;6250503;28;20482;-64
2022/11/30 08:42:04;;;;;;;16.67;14.43;;;6.40;99.90;;;;;;6260267;28;20951;-64
2022/11/30 08:45:08;;;;;;;21.70;14.93;;;6.40;99.90;;;;;;6269570;28;20488;-64
2022/11/30 08:48:12;;;;;;;18.07;14.03;;;6.40;99.90;;;;;;6274659;28;20535;-64
2022/11/30 08:51:17;;;;;;;22.37;17.03;;;6.30;99.90;;;;;;6265496;28;20578;-65
2022/11/30 08:54:21;;;;;;;22.07;14.83;;;6.30;99.90;;;;;;6249268;28;20478;-64
2022/11/30 08:57:25;;;;;;;27.93;19.13;;;6.30;99.90;;;;;;6249307;28;20475;-64
2022/11/30 09:00:28;;;;;;;24.47;18.20;;;6.30;99.90;;;;;;6265813;28;20475;-64
2022/11/30 09:03:32;;;;;;;23.23;16.80;;;6.30;99.90;;;;;;6280674;28;20478;-63
2022/11/30 09:06:35;;;;;;;25.50;18.37;;;6.30;99.90;;;;;;6278594;28;21088;-63
2022/11/30 09:09:39;;;;;;;21.23;15.40;;;6.30;99.90;;;;;;6252036;28;20478;-64
2022/11/30 09:12:42;;;;;;;57.73;41.60;;;6.30;99.90;;;;;;6253635;28;20797;-64
2022/11/30 09:15:54;;;;;;;35.33;25.70;;;6.40;99.90;;;;;;6253042;28;20478;-64
2022/11/30 09:18:57;;;;;;;32.33;21.40;;;6.50;99.90;;;;;;6252942;28;20877;-65
2022/11/30 09:22:01;;;;;;;31.23;22.17;;;6.60;99.90;;;;;;6260377;28;20485;-64
2022/11/30 09:25:06;;;;;;;52.40;35.00;;;6.70;99.90;;;;;;6285402;28;20470;-64
2022/11/30 09:28:09;;;;;;;31.83;22.97;;;6.70;99.90;;;;;;6279741;28;20539;-64
2022/11/30 09:31:16;;;;;;;28.07;17.97;;;6.70;99.90;;;;;;6277716;28;20479;-65
2022/11/30 09:34:20;;;;;;;24.67;19.27;;;6.80;99.90;;;;;;6273107;28;20475;-63
2022/11/30 09:37:23;;;;;;;22.30;17.50;;;6.80;99.90;;;;;;6252987;28;20497;-62
2022/11/30 09:40:29;;;;;;;30.77;22.97;;;6.90;99.90;;;;;;6252255;28;20840;-63
2022/11/30 09:43:44;;;;;;;28.37;18.73;;;6.80;99.90;;;;;;6252408;28;20495;-63
2022/11/30 09:46:55;;;;;;;23.13;17.60;;;6.80;99.90;;;;;;6252982;28;20513;-63
2022/11/30 09:50:03;;;;;;;27.33;19.50;;;6.80;99.90;;;;;;6252779;28;20522;-61
2022/11/30 09:53:13;;;;;;;24.50;17.60;;;6.70;99.90;;;;;;6252825;28;20962;-61
2022/11/30 09:56:24;;;;;;;21.10;16.43;;;6.80;99.90;;;;;;6253217;28;20967;-62
2022/11/30 09:59:31;;;;;;;23.70;16.27;;;6.70;99.90;;;;;;6252227;28;21008;-61
2022/11/30 10:02:37;;;;;;;27.47;18.40;;;6.70;99.90;;;;;;6264045;28;20477;-62
2022/11/30 10:05:47;;;;;;;21.40;15.60;;;6.80;99.90;;;;;;6276998;28;20554;-61
2022/11/30 10:09:06;;;;;;;21.03;15.13;;;6.90;99.90;;;;;;6276940;28;20471;-61
2022/11/30 10:12:15;;;;;;;21.23;14.40;;;6.90;99.90;;;;;;6271533;28;20481;-62
2022/11/30 10:15:31;;;;;;;17.67;13.53;;;6.90;99.90;;;;;;6268387;28;20489;-61
2022/11/30 10:18:44;;;;;;;20.40;15.13;;;6.90;99.90;;;;;;6270454;28;20467;-62
2022/11/30 10:22:00;;;;;;;19.87;15.47;;;7.00;99.90;;;;;;6260947;28;20463;-62
2022/11/30 10:25:14;;;;;;;22.17;15.60;;;6.90;99.90;;;;;;6260173;28;20471;-62
2022/11/30 10:28:23;;;;;;;19.40;15.30;;;6.90;99.90;;;;;;6264302;28;20475;-61
2022/11/30 10:31:48;;;;;;;19.67;14.67;;;6.90;99.90;;;;;;6258902;28;20558;-61
2022/11/30 10:34:54;;;;;;;22.23;16.63;;;6.80;99.90;;;;;;6268084;28;20451;-61
2022/11/30 10:38:03;;;;;;;19.40;14.10;;;6.80;99.90;;;;;;6249414;28;20427;-61
2022/11/30 10:41:13;;;;;;;19.20;15.37;;;6.70;99.90;;;;;;6275281;28;20481;-61
2022/11/30 10:44:23;;;;;;;23.43;17.30;;;6.70;99.90;;;;;;6254805;28;20478;-63
2022/11/30 10:47:32;;;;;;;20.30;16.50;;;6.70;99.90;;;;;;6250060;28;20471;-64
2022/11/30 10:50:36;;;;;;;25.03;18.40;;;6.70;99.90;;;;;;6250657;28;20481;-64
2022/11/30 10:53:39;;;;;;;23.73;17.10;;;6.70;99.90;;;;;;6249595;28;20873;-64
2022/11/30 10:56:42;;;;;;;19.97;15.43;;;6.70;99.90;;;;;;6226536;28;20829;-64
2022/11/30 10:59:50;;;;;;;20.67;14.20;;;6.80;99.90;;;;;;6226024;28;20486;-64
2022/11/30 11:02:53;;;;;;;19.30;14.60;;;6.70;99.90;;;;;;6226200;28;20823;-64
2022/11/30 11:06:11;;;;;;;20.67;14.97;;;6.70;99.90;;;;;;6225887;28;20579;-64
2022/11/30 11:09:31;;;;;;;22.23;15.37;;;6.70;99.90;;;;;;6226253;28;20476;-63
2022/11/30 11:12:34;;;;;;;17.10;14.30;;;6.80;99.90;;;;;;6227410;28;20980;-63
2022/11/30 11:15:39;;;;;;;19.17;13.50;;;6.80;99.90;;;;;;6225844;28;20483;-65
2022/11/30 11:18:52;;;;;;;16.80;13.53;;;6.80;99.90;;;;;;6221529;28;20650;-63
2022/11/30 11:21:56;;;;;;;22.07;15.47;;;6.90;99.90;;;;;;6225782;28;20468;-64
2022/11/30 11:25:11;;;;;;;19.57;14.50;;;6.90;99.90;;;;;;6274944;28;20474;-64
2022/11/30 11:28:19;;;;;;;24.40;16.40;;;7.00;99.90;;;;;;6274629;28;20537;-63
2022/11/30 11:31:35;;;;;;;18.83;13.30;;;7.00;99.90;;;;;;6275987;28;20470;-64
2022/11/30 11:34:38;;;;;;;17.37;13.40;;;7.00;99.90;;;;;;6271402;28;20476;-64
2022/11/30 11:37:51;;;;;;;16.90;14.30;;;7.00;99.90;;;;;;6254480;28;20475;-64
2022/11/30 11:40:57;;;;;;;14.40;11.03;;;7.10;99.90;;;;;;6250141;28;20471;-65
2022/11/30 11:44:03;;;;;;;11.47;10.07;;;7.10;99.90;;;;;;6250693;28;20440;-64
2022/11/30 11:47:23;;;;;;;13.20;11.00;;;7.10;99.90;;;;;;6256068;28;20478;-64
2022/11/30 11:50:31;;;;;;;13.73;11.17;;;7.00;99.90;;;;;;6254767;28;20490;-64
2022/11/30 11:53:57;;;;;;;18.60;12.37;;;7.10;99.90;;;;;;6249721;28;20474;-64
2022/11/30 11:57:00;;;;;;;12.87;11.20;;;7.10;99.90;;;;;;6250187;28;20475;-64
2022/11/30 12:00:06;;;;;;;12.23;11.03;;;7.10;99.90;;;;;;6249583;28;20486;-64
2022/11/30 12:03:30;;;;;;;11.03;9.57;;;7.10;99.90;;;;;;6252129;28;20467;-64
2022/11/30 12:06:35;;;;;;;12.40;8.90;;;7.20;99.90;;;;;;6255423;28;20990;-64
2022/11/30 12:09:44;;;;;;;10.07;8.93;;;7.20;99.90;;;;;;6253397;28;20495;-63
2022/11/30 12:12:47;;;;;;;11.63;10.33;;;7.20;99.90;;;;;;6249959;28;20850;-63
2022/11/30 12:16:04;;;;;;;11.20;10.00;;;7.20;99.90;;;;;;6249493;28;21041;-64
2022/11/30 12:19:15;;;;;;;12.67;10.10;;;7.10;99.90;;;;;;6249873;28;20490;-63
2022/11/30 12:22:37;;;;;;;11.37;9.97;;;7.20;99.90;;;;;;6248481;28;20466;-64
2022/11/30 12:25:45;;;;;;;11.27;8.90;;;7.20;99.90;;;;;;6274303;28;20485;-63
2022/11/30 12:29:06;;;;;;;12.00;9.73;;;7.20;99.90;;;;;;6273782;28;20875;-63
2022/11/30 12:32:23;;;;;;;11.67;10.03;;;7.20;99.90;;;;;;6274499;28;20470;-64
2022/11/30 12:35:36;;;;;;;11.23;9.33;;;7.20;99.90;;;;;;6263836;28;20952;-63
2022/11/30 12:38:48;;;;;;;10.73;9.63;;;7.20;99.90;;;;;;6254092;28;20835;-64
2022/11/30 12:41:54;;;;;;;13.80;10.00;;;7.20;99.90;;;;;;6254306;28;20486;-64
2022/11/30 12:45:05;;;;;;;12.47;10.40;;;7.20;99.90;;;;;;6254276;28;20491;-64
2022/11/30 12:48:18;;;;;;;11.40;10.20;;;7.20;99.90;;;;;;6254267;28;20479;-63
2022/11/30 12:51:29;;;;;;;15.97;11.90;;;7.20;99.90;;;;;;6253995;28;20475;-63
2022/11/30 12:54:37;;;;;;;16.27;11.30;;;7.10;99.90;;;;;;6254143;28;20471;-64
2022/11/30 12:57:49;;;;;;;14.90;11.67;;;7.10;99.90;;;;;;6253986;28;20471;-64
2022/11/30 13:01:05;;;;;;;18.60;12.67;;;7.10;99.90;;;;;;6253527;28;20986;-64
2022/11/30 13:04:16;;;;;;;20.40;16.00;;;7.00;99.90;;;;;;6252885;28;20561;-64
2022/11/30 13:07:26;;;;;;;18.40;14.10;;;7.00;99.90;;;;;;6261981;28;20486;-64
2022/11/30 13:10:37;;;;;;;15.07;13.57;;;7.00;99.90;;;;;;6264006;28;20474;-65
2022/11/30 13:13:48;;;;;;;15.33;13.70;;;7.00;99.90;;;;;;6262573;28;20486;-65
2022/11/30 13:17:00;;;;;;;15.70;13.10;;;7.00;99.90;;;;;;6264168;28;20500;-65
2022/11/30 13:20:08;;;;;;;15.30;12.07;;;7.00;99.90;;;;;;6263539;28;20541;-65
2022/11/30 13:23:18;;;;;;;17.73;13.23;;;6.80;99.90;;;;;;6272584;28;20466;-65
2022/11/30 13:26:28;;;;;;;18.03;13.60;;;6.80;99.90;;;;;;6278588;28;20470;-64
2022/11/30 13:30:02;;;;;;;19.47;12.83;;;6.70;99.90;;;;;;6278426;28;20474;-66
2022/11/30 13:33:46;;;;;;;15.87;11.90;;;6.70;99.90;;;;;;6279286;28;20958;-63
2022/11/30 13:37:00;;;;;;;17.70;11.63;;;6.60;99.90;;;;;;6241819;28;20797;-65
2022/11/30 13:40:19;;;;;;;17.43;12.47;;;6.50;99.90;;;;;;6252679;28;20484;-63
2022/11/30 13:43:24;;;;;;;15.53;12.20;;;6.50;99.90;;;;;;6242672;28;20480;-63
2022/11/30 13:46:27;;;;;;;17.80;12.50;;;6.40;99.90;;;;;;6242728;28;20864;-63
2022/11/30 13:49:33;;;;;;;18.83;12.87;;;6.40;99.90;;;;;;6255910;28;20970;-63
2022/11/30 13:53:09;;;;;;;19.20;13.67;;;6.50;99.90;;;;;;6232247;28;20487;-63
2022/11/30 13:56:34;;;;;;;16.33;13.23;;;6.60;99.90;;;;;;6250479;28;20467;-63
2022/11/30 13:59:45;;;;;;;17.90;13.43;;;6.70;99.90;;;;;;6250086;28;20816;-63
2022/11/30 14:02:53;;;;;;;16.27;13.17;;;6.70;99.90;;;;;;6262614;28;21010;-64
2022/11/30 14:05:57;;;;;;;19.33;12.00;;;6.70;99.90;;;;;;6252891;28;20487;-63
2022/11/30 14:09:01;;;;;;;18.60;13.70;;;6.70;99.90;;;;;;6252670;28;20475;-63
2022/11/30 14:12:51;;;;;;;16.23;12.13;;;6.80;99.90;;;;;;6253460;28;20485;-63
2022/11/30 14:15:58;;;;;;;14.93;11.10;;;6.80;99.90;;;;;;6212842;28;20480;-62
2022/11/30 14:19:06;;;;;;;19.77;12.60;;;6.80;99.90;;;;;;6219620;28;20473;-63
2022/11/30 14:22:11;;;;;;;18.17;12.90;;;6.80;99.90;;;;;;6255168;28;20487;-63
2022/11/30 14:25:17;;;;;;;16.37;12.67;;;6.80;99.90;;;;;;6276604;28;20467;-63
2022/11/30 14:28:24;;;;;;;16.30;11.87;;;6.80;99.90;;;;;;6276033;28;20470;-63
2022/11/30 14:31:33;;;;;;;16.20;12.37;;;6.80;99.90;;;;;;6292445;28;20473;-63
2022/11/30 14:34:38;;;;;;;16.37;12.03;;;6.90;99.90;;;;;;6273344;28;20471;-63
2022/11/30 14:37:44;;;;;;;17.17;11.60;;;6.90;99.90;;;;;;6257863;28;20470;-63
2022/11/30 14:40:51;;;;;;;15.20;11.40;;;7.00;99.90;;;;;;6266286;28;20783;-63
2022/11/30 14:44:02;;;;;;;14.10;11.90;;;6.90;99.90;;;;;;6258053;28;20786;-64
2022/11/30 14:47:23;;;;;;;19.00;12.10;;;6.90;99.90;;;;;;6262597;28;20472;-64
2022/11/30 14:50:26;;;;;;;18.27;13.37;;;6.90;99.90;;;;;;6260242;28;20475;-63
2022/11/30 14:53:38;;;;;;;15.63;10.83;;;6.90;99.90;;;;;;6263019;28;20470;-64
2022/11/30 14:56:47;;;;;;;14.83;10.73;;;6.80;99.90;;;;;;6258434;28;20472;-63
2022/11/30 14:59:54;;;;;;;12.10;9.20;;;6.80;99.90;;;;;;6256463;28;20478;-64
2022/11/30 15:02:58;;;;;;;11.87;8.57;;;6.80;99.90;;;;;;6250709;28;20475;-64
2022/11/30 15:06:04;;;;;;;12.03;9.60;;;6.80;99.90;;;;;;6250801;28;20479;-64
2022/11/30 15:09:16;;;;;;;11.70;9.97;;;6.80;99.90;;;;;;6250677;28;20793;-64
2022/11/30 15:12:21;;;;;;;9.23;8.00;;;6.80;99.90;;;;;;6250501;28;20987;-64
2022/11/30 15:15:26;;;;;;;7.80;7.07;;;6.90;99.90;;;;;;6251120;28;20488;-64
2022/11/30 15:18:31;;;;;;;9.10;7.87;;;6.90;99.90;;;;;;6250441;28;20493;-64
2022/11/30 15:21:34;;;;;;;9.60;7.70;;;6.80;99.90;;;;;;6250416;28;20571;-63
2022/11/30 15:24:37;;;;;;;17.00;10.73;;;6.90;99.90;;;;;;6272474;28;20477;-63
2022/11/30 15:27:40;;;;;;;7.63;7.03;;;6.90;99.90;;;;;;6275007;28;20485;-62
2022/11/30 15:30:46;;;;;;;7.83;7.10;;;6.90;99.90;;;;;;6254414;28;20476;-64
2022/11/30 15:33:51;;;;;;;6.70;6.10;;;6.90;99.90;;;;;;6258883;28;20532;-64
2022/11/30 15:36:55;;;;;;;9.30;6.93;;;6.90;99.90;;;;;;6245511;28;20484;-64
2022/11/30 15:40:01;;;;;;;6.73;5.33;;;6.80;99.90;;;;;;6248995;28;20844;-63
2022/11/30 15:43:04;;;;;;;6.77;5.60;;;6.80;99.90;;;;;;6250659;28;20490;-63
2022/11/30 15:46:22;;;;;;;12.53;9.90;;;6.80;99.90;;;;;;6226360;28;20473;-64
2022/11/30 15:49:29;;;;;;;8.43;6.60;;;6.80;99.90;;;;;;6229920;28;20483;-64
2022/11/30 15:52:34;;;;;;;6.10;5.50;;;6.80;99.90;;;;;;6225269;28;20796;-63
2022/11/30 15:55:42;;;;;;;8.00;6.83;;;6.80;99.90;;;;;;6225575;28;20820;-64
2022/11/30 15:59:01;;;;;;;9.80;7.40;;;6.80;99.90;;;;;;6249752;28;20818;-64
2022/11/30 16:02:07;;;;;;;8.70;7.20;;;6.90;99.90;;;;;;6260033;28;20608;-65
2022/11/30 16:05:26;;;;;;;7.80;7.00;;;6.80;99.90;;;;;;6259954;28;20942;-64